createdAt,value
2023-03-26T00:01:30.174Z,89.40
2023-03-26T00:03:58.692Z,89.80
2023-03-26T00:06:28.835Z,90.10
2023-03-26T00:08:58.269Z,90.20
2023-03-26T00:11:27.957Z,90.60
2023-03-26T00:13:57.732Z,90.90
2023-03-26T00:16:28.049Z,91.00
2023-03-26T00:18:57.728Z,91.00
2023-03-26T00:21:27.805Z,91.30
2023-03-26T00:23:59.631Z,91.30
2023-03-26T00:26:30.252Z,90.90
2023-03-26T00:29:00.243Z,90.80
2023-03-26T00:31:28.863Z,90.80
2023-03-26T00:33:57.575Z,90.90
2023-03-26T00:36:26.827Z,90.60
2023-03-26T00:38:56.078Z,90.80
2023-03-26T00:41:26.657Z,90.80
2023-03-26T00:43:56.672Z,90.80
2023-03-26T00:46:26.553Z,90.70
2023-03-26T00:48:57.155Z,90.70
2023-03-26T00:51:26.158Z,90.90
2023-03-26T00:53:54.742Z,90.80
2023-03-26T00:56:23.353Z,90.60
2023-03-26T00:58:51.926Z,90.50
2023-03-26T01:01:23.979Z,90.60
2023-03-26T01:04:05.232Z,90.20
2023-03-26T01:08:02.595Z,90.20
2023-03-26T01:09:27.224Z,90.00
2023-03-26T01:11:56.029Z,89.90
2023-03-26T01:14:26.595Z,90.00
2023-03-26T01:17:01.167Z,90.00
2023-03-26T01:19:31.480Z,90.00
2023-03-26T01:22:00.596Z,90.00
2023-03-26T01:24:29.258Z,89.90
2023-03-26T01:26:59.333Z,89.70
2023-03-26T01:29:35.896Z,89.90
2023-03-26T01:32:15.345Z,89.90
2023-03-26T01:34:54.394Z,89.90
2023-03-26T01:37:24.524Z,89.80
2023-03-26T01:40:02.020Z,90.00
2023-03-26T01:42:32.087Z,89.90
2023-03-26T01:45:02.286Z,90.10
2023-03-26T01:47:31.339Z,90.20
2023-03-26T01:50:00.187Z,89.90
2023-03-26T01:52:28.852Z,89.90
2023-03-26T01:54:57.787Z,89.90
2023-03-26T01:57:44.716Z,89.80
2023-03-26T02:00:18.038Z,89.90
2023-03-26T02:02:57.648Z,89.90
2023-03-26T02:05:34.155Z,89.90
2023-03-26T02:08:04.235Z,89.90
2023-03-26T02:10:34.592Z,89.90
2023-03-26T02:13:03.493Z,90.00
2023-03-26T02:15:32.223Z,89.80
2023-03-26T02:18:01.790Z,89.70
2023-03-26T02:20:30.726Z,89.80
2023-03-26T02:22:59.730Z,89.60
2023-03-26T02:25:28.762Z,89.70
2023-03-26T02:27:58.554Z,89.70
2023-03-26T02:30:29.139Z,89.70
2023-03-26T02:32:59.148Z,89.80
2023-03-26T02:35:29.813Z,89.60
2023-03-26T02:38:00.484Z,89.80
2023-03-26T02:40:29.177Z,89.80
2023-03-26T02:42:58.506Z,90.00
2023-03-26T02:45:28.129Z,89.90
2023-03-26T02:48:29.613Z,89.90
2023-03-26T02:51:02.924Z,89.90
2023-03-26T02:53:37.268Z,90.00
2023-03-26T02:56:22.472Z,89.80
2023-03-26T02:59:01.464Z,89.50
2023-03-26T03:01:31.718Z,89.70
2023-03-26T03:04:01.359Z,89.80
2023-03-26T03:06:40.260Z,89.60
2023-03-26T03:09:09.108Z,89.40
2023-03-26T03:11:40.906Z,89.40
2023-03-26T03:14:09.424Z,89.40
2023-03-26T03:16:39.218Z,89.20
2023-03-26T03:19:09.672Z,89.10
2023-03-26T03:21:39.550Z,88.80
2023-03-26T03:24:08.803Z,89.00
2023-03-26T03:26:39.012Z,88.60
2023-03-26T03:29:12.815Z,88.50
2023-03-26T03:31:41.577Z,88.60
2023-03-26T03:34:11.825Z,88.80
2023-03-26T03:36:42.100Z,88.60
2023-03-26T03:39:12.389Z,88.50
2023-03-26T03:41:40.972Z,88.70
2023-03-26T03:44:11.172Z,88.50
2023-03-26T03:46:39.819Z,88.60
2023-03-26T03:49:08.384Z,88.60
2023-03-26T03:51:38.137Z,88.80
2023-03-26T03:54:08.531Z,88.70
2023-03-26T03:56:41.473Z,88.80
2023-03-26T03:59:12.076Z,88.90
2023-03-26T04:01:42.282Z,88.80
2023-03-26T04:04:12.792Z,88.80
2023-03-26T04:06:46.131Z,88.80
2023-03-26T04:09:15.352Z,88.90
2023-03-26T04:11:44.879Z,88.80
2023-03-26T04:14:27.341Z,88.70
2023-03-26T04:17:00.489Z,88.70
2023-03-26T04:19:30.462Z,88.60
2023-03-26T04:22:01.244Z,88.60
2023-03-26T04:24:33.282Z,88.70
2023-03-26T04:27:13.718Z,88.60
2023-03-26T04:29:44.292Z,88.80
2023-03-26T04:32:19.322Z,88.70
2023-03-26T04:34:48.202Z,88.70
2023-03-26T04:37:27.529Z,88.60
2023-03-26T04:39:58.145Z,88.50
2023-03-26T04:42:32.765Z,88.50
2023-03-26T04:45:03.123Z,88.30
2023-03-26T04:47:31.971Z,87.90
2023-03-26T04:50:01.070Z,88.20
2023-03-26T04:52:29.715Z,88.20
2023-03-26T04:55:00.706Z,88.10
2023-03-26T04:57:32.491Z,88.10
2023-03-26T05:00:04.710Z,88.00
2023-03-26T05:02:34.000Z,88.20
2023-03-26T05:05:02.974Z,87.70
2023-03-26T05:07:33.030Z,87.30
2023-03-26T05:10:04.971Z,87.50
2023-03-26T05:13:03.429Z,87.60
2023-03-26T05:15:36.422Z,87.40
2023-03-26T05:18:12.637Z,87.70
2023-03-26T05:20:52.294Z,87.60
2023-03-26T05:23:20.869Z,87.90
2023-03-26T05:25:51.790Z,88.00
2023-03-26T05:28:23.558Z,88.10
2023-03-26T05:30:54.278Z,88.50
2023-03-26T05:33:24.402Z,88.20
2023-03-26T05:36:02.268Z,88.50
2023-03-26T05:38:31.888Z,88.60
2023-03-26T05:41:02.226Z,88.40
2023-03-26T05:43:30.971Z,88.50
2023-03-26T05:46:13.749Z,88.60
2023-03-26T05:48:42.226Z,88.30
2023-03-26T05:51:12.326Z,88.70
2023-03-26T05:53:42.509Z,88.90
2023-03-26T05:56:15.615Z,89.10
2023-03-26T05:59:02.342Z,89.00
2023-03-26T06:01:50.683Z,89.10
2023-03-26T06:04:21.719Z,88.80
2023-03-26T06:06:52.601Z,88.80
2023-03-26T06:09:21.647Z,88.80
2023-03-26T06:11:50.722Z,88.30
2023-03-26T06:14:19.381Z,87.70
2023-03-26T06:16:55.474Z,87.40
2023-03-26T06:19:24.554Z,87.10
2023-03-26T06:21:54.760Z,87.70
2023-03-26T06:24:25.257Z,87.00
2023-03-26T06:27:01.309Z,86.90
2023-03-26T06:29:37.402Z,86.60
2023-03-26T06:32:20.052Z,86.60
2023-03-26T06:34:48.485Z,86.80
2023-03-26T06:37:17.540Z,86.60
2023-03-26T06:39:47.866Z,87.20
2023-03-26T06:42:20.900Z,86.10
2023-03-26T06:45:09.277Z,86.00
2023-03-26T06:47:56.048Z,86.00
2023-03-26T06:50:29.061Z,85.20
2023-03-26T06:53:11.814Z,84.90
2023-03-26T06:56:00.318Z,85.40
2023-03-26T06:58:46.195Z,85.30
2023-03-26T07:01:34.564Z,85.00
2023-03-26T07:04:21.441Z,84.90
2023-03-26T07:07:06.525Z,84.80
2023-03-26T07:09:52.940Z,84.20
2023-03-26T07:12:32.456Z,84.50
2023-03-26T07:15:19.092Z,84.30
2023-03-26T07:18:06.055Z,84.40
2023-03-26T07:20:36.577Z,83.90
2023-03-26T07:23:05.349Z,83.70
2023-03-26T07:25:38.442Z,84.60
2023-03-26T07:28:11.119Z,84.70
2023-03-26T07:30:51.769Z,85.10
2023-03-26T07:33:23.561Z,84.30
2023-03-26T07:36:09.925Z,83.90
2023-03-26T07:38:50.810Z,83.80
2023-03-26T07:41:46.426Z,83.70
2023-03-26T07:44:35.982Z,83.70
2023-03-26T07:47:14.577Z,82.90
2023-03-26T07:49:44.949Z,82.60
2023-03-26T07:52:15.237Z,82.00
2023-03-26T07:54:54.666Z,83.50
2023-03-26T07:57:46.197Z,83.50
2023-03-26T08:00:33.351Z,85.30
2023-03-26T08:03:13.988Z,77.60
2023-03-26T08:05:54.328Z,76.90
2023-03-26T08:08:28.762Z,75.30
2023-03-26T08:11:17.865Z,77.00
2023-03-26T08:13:58.756Z,76.30
2023-03-26T08:16:43.893Z,76.80
2023-03-26T08:19:30.714Z,77.40
2023-03-26T08:22:03.545Z,77.00
2023-03-26T08:24:33.611Z,77.50
2023-03-26T08:27:06.562Z,77.60
2023-03-26T08:29:44.373Z,77.90
2023-03-26T08:32:16.975Z,78.10
2023-03-26T08:34:46.298Z,77.30
2023-03-26T08:37:15.381Z,76.80
2023-03-26T08:39:43.930Z,73.60
2023-03-26T08:42:14.006Z,75.00
2023-03-26T08:44:59.390Z,76.50
2023-03-26T08:47:41.501Z,73.40
2023-03-26T08:50:15.810Z,72.50
2023-03-26T08:52:54.897Z,67.30
2023-03-26T08:55:28.136Z,67.70
2023-03-26T08:58:14.743Z,67.20
2023-03-26T09:00:57.289Z,67.50
2023-03-26T09:03:27.808Z,67.00
2023-03-26T09:06:01.189Z,66.90
2023-03-26T09:08:53.873Z,68.30
2023-03-26T09:11:14.922Z,67.50
2023-03-26T09:14:00.140Z,68.80
2023-03-26T09:16:46.935Z,68.00
2023-03-26T09:19:23.177Z,69.70
2023-03-26T09:22:08.329Z,69.90
2023-03-26T09:24:41.154Z,70.00
2023-03-26T09:27:11.207Z,71.50
2023-03-26T09:29:51.132Z,70.80
2023-03-26T09:32:21.202Z,70.00
2023-03-26T09:34:53.972Z,70.60
2023-03-26T09:37:56.879Z,70.10
2023-03-26T09:40:20.116Z,70.10
2023-03-26T09:42:56.211Z,70.30
2023-03-26T09:45:42.780Z,70.80
2023-03-26T09:48:18.226Z,69.30
2023-03-26T09:50:54.271Z,69.20
2023-03-26T09:53:24.604Z,68.60
2023-03-26T09:55:57.565Z,68.40
2023-03-26T09:58:27.809Z,67.20
2023-03-26T10:00:59.744Z,67.40
2023-03-26T10:03:32.784Z,68.10
2023-03-26T10:06:10.308Z,68.70
2023-03-26T10:08:41.371Z,66.50
2023-03-26T10:11:12.261Z,66.20
2023-03-26T10:13:45.054Z,66.10
2023-03-26T10:16:17.881Z,66.40
2023-03-26T10:18:57.034Z,66.00
2023-03-26T10:21:45.808Z,65.50
2023-03-26T10:24:15.952Z,66.50
2023-03-26T10:27:08.732Z,71.30
2023-03-26T10:29:45.112Z,69.10
2023-03-26T10:32:24.531Z,66.20
2023-03-26T10:34:57.601Z,62.60
2023-03-26T10:37:27.738Z,64.10
2023-03-26T10:42:53.020Z,59.90
2023-03-26T10:45:38.038Z,59.20
2023-03-26T10:48:14.312Z,60.60
2023-03-26T10:50:47.240Z,60.20
2023-03-26T10:53:21.759Z,60.20
2023-03-26T10:55:51.802Z,59.40
2023-03-26T10:58:24.581Z,62.00
2023-03-26T11:00:57.593Z,64.00
2023-03-26T11:03:41.601Z,64.10
2023-03-26T11:06:17.434Z,64.40
2023-03-26T11:08:50.523Z,63.30
2023-03-26T11:11:20.598Z,62.70
2023-03-26T11:13:50.898Z,59.90
2023-03-26T11:16:21.089Z,59.50
2023-03-26T11:18:51.362Z,60.20
2023-03-26T11:21:36.937Z,59.60
2023-03-26T11:24:25.865Z,61.10
2023-03-26T11:27:15.293Z,60.00
2023-03-26T11:29:40.195Z,61.30
2023-03-26T11:32:15.871Z,61.90
2023-03-26T11:34:50.723Z,61.20
2023-03-26T11:37:20.821Z,59.10
2023-03-26T11:39:51.365Z,58.40
2023-03-26T11:42:21.617Z,57.90
2023-03-26T11:44:54.428Z,59.70
2023-03-26T11:47:24.543Z,59.00
2023-03-26T11:49:54.000Z,61.40
2023-03-26T11:52:23.172Z,60.60
2023-03-26T11:54:51.706Z,59.90
2023-03-26T11:57:22.165Z,60.10
2023-03-26T11:59:57.648Z,60.80
2023-03-26T12:02:32.208Z,59.40
2023-03-26T12:05:02.514Z,58.60
2023-03-26T12:07:32.635Z,57.90
2023-03-26T12:10:18.280Z,58.20
2023-03-26T12:12:40.037Z,58.20
2023-03-26T12:15:15.373Z,59.20
2023-03-26T12:17:43.976Z,58.00
2023-03-26T12:20:26.183Z,60.10
2023-03-26T12:22:59.572Z,59.80
2023-03-26T12:25:33.332Z,59.40
2023-03-26T12:28:17.169Z,58.90
2023-03-26T12:30:54.825Z,59.20
2023-03-26T12:33:26.942Z,59.60
2023-03-26T12:35:58.134Z,59.00
2023-03-26T12:38:32.826Z,58.50
2023-03-26T12:44:42.331Z,58.50
2023-03-26T12:44:55.184Z,58.10
2023-03-26T12:47:55.087Z,57.60
2023-03-26T12:48:54.606Z,57.80
2023-03-26T12:51:27.666Z,58.40
2023-03-26T12:54:01.151Z,58.40
2023-03-26T12:56:38.363Z,59.20
2023-03-26T12:59:11.753Z,58.30
2023-03-26T13:01:49.538Z,58.40
2023-03-26T13:04:19.925Z,58.10
2023-03-26T13:07:01.841Z,58.30
2023-03-26T13:09:41.872Z,58.10
2023-03-26T13:12:27.191Z,57.00
2023-03-26T13:14:57.302Z,57.30
2023-03-26T13:17:36.921Z,58.80
2023-03-26T13:20:08.739Z,58.20
2023-03-26T13:22:44.498Z,58.40
2023-03-26T13:25:17.425Z,58.90
2023-03-26T13:27:47.517Z,59.50
2023-03-26T13:30:17.648Z,59.80
2023-03-26T13:32:58.597Z,59.20
2023-03-26T13:35:31.979Z,59.30
2023-03-26T13:38:02.179Z,60.10
2023-03-26T13:40:35.238Z,60.10
2023-03-26T13:43:08.276Z,60.60
2023-03-26T13:45:44.171Z,60.90
2023-03-26T13:48:14.190Z,59.50
2023-03-26T13:50:44.309Z,60.70
2023-03-26T13:53:20.444Z,60.30
2023-03-26T13:55:50.621Z,60.40
2023-03-26T13:58:20.730Z,60.20
2023-03-26T14:01:07.277Z,60.20
2023-03-26T14:03:49.223Z,62.00
2023-03-26T14:06:25.679Z,60.20
2023-03-26T14:08:55.889Z,61.40
2023-03-26T14:11:26.034Z,60.30
2023-03-26T14:14:07.838Z,60.80
2023-03-26T14:16:37.908Z,60.70
2023-03-26T14:19:24.108Z,61.50
2023-03-26T14:22:12.193Z,61.20
2023-03-26T14:24:48.208Z,61.60
2023-03-26T14:27:19.877Z,61.50
2023-03-26T14:30:06.645Z,61.30
2023-03-26T14:32:44.779Z,60.80
2023-03-26T14:35:31.269Z,60.70
2023-03-26T14:38:04.348Z,61.50
2023-03-26T14:40:37.329Z,61.60
2023-03-26T14:43:07.884Z,61.40
2023-03-26T14:45:37.906Z,61.30
2023-03-26T14:48:24.826Z,60.80
2023-03-26T14:51:00.896Z,60.70
2023-03-26T14:53:32.719Z,61.00
2023-03-26T14:56:03.828Z,60.80
2023-03-26T14:58:43.388Z,60.80
2023-03-26T15:01:14.899Z,60.70
2023-03-26T15:03:54.196Z,61.10
2023-03-26T15:06:39.620Z,61.50
2023-03-26T15:09:09.718Z,60.80
2023-03-26T15:12:12.453Z,60.70
2023-03-26T15:14:44.083Z,60.60
2023-03-26T15:17:19.865Z,61.30
2023-03-26T15:19:49.925Z,61.60
2023-03-26T15:22:36.820Z,61.50
2023-03-26T15:25:23.701Z,61.50
2023-03-26T15:28:10.115Z,62.00
2023-03-26T15:30:57.841Z,62.50
2023-03-26T15:33:32.225Z,63.40
2023-03-26T15:36:03.162Z,62.00
2023-03-26T15:38:33.270Z,61.40
2023-03-26T15:41:18.478Z,62.30
2023-03-26T15:44:23.456Z,61.20
2023-03-26T15:46:26.400Z,61.10
2023-03-26T15:48:59.301Z,61.60
2023-03-26T15:51:47.257Z,61.80
2023-03-26T15:54:28.398Z,62.20
2023-03-26T15:57:16.612Z,61.20
2023-03-26T16:00:06.808Z,61.50
2023-03-26T16:02:38.781Z,62.00
2023-03-26T16:05:21.207Z,62.40
2023-03-26T16:07:51.666Z,61.80
2023-03-26T16:10:30.681Z,61.40
2023-03-26T16:13:18.787Z,61.40
2023-03-26T16:15:52.599Z,61.50
2023-03-26T16:18:35.707Z,61.20
2023-03-26T16:21:05.797Z,61.60
2023-03-26T16:23:47.950Z,61.70
2023-03-26T16:26:15.313Z,61.60
2023-03-26T16:28:52.805Z,61.10
2023-03-26T16:31:38.307Z,61.00
2023-03-26T16:34:00.489Z,61.30
2023-03-26T16:36:36.698Z,62.30
2023-03-26T16:39:08.153Z,62.40
2023-03-26T16:41:40.880Z,62.00
2023-03-26T16:44:11.036Z,62.30
2023-03-26T16:46:50.405Z,62.10
2023-03-26T16:49:29.706Z,62.10
2023-03-26T16:52:09.443Z,61.90
2023-03-26T16:54:46.128Z,62.20
2023-03-26T16:57:22.837Z,62.60
2023-03-26T17:00:04.646Z,62.50
2023-03-26T17:02:27.710Z,61.90
2023-03-26T17:04:57.946Z,62.30
2023-03-26T17:07:44.655Z,62.10
2023-03-26T17:10:17.741Z,62.30
2023-03-26T17:12:53.667Z,63.00
2023-03-26T17:15:29.840Z,62.40
2023-03-26T17:17:59.930Z,62.70
2023-03-26T17:20:31.590Z,62.70
2023-03-26T17:23:04.581Z,62.50
2023-03-26T17:25:45.446Z,63.30
2023-03-26T17:28:35.587Z,62.70
2023-03-26T17:31:06.523Z,63.40
2023-03-26T17:33:38.429Z,63.10
2023-03-26T17:36:14.708Z,63.40
2023-03-26T17:38:47.478Z,63.40
2023-03-26T17:41:17.957Z,63.70
2023-03-26T17:43:50.456Z,63.80
2023-03-26T17:46:37.555Z,63.70
2023-03-26T17:49:13.883Z,63.80
2023-03-26T17:51:53.252Z,63.90
2023-03-26T17:54:29.199Z,64.00
2023-03-26T17:56:59.349Z,64.30
2023-03-26T17:59:28.689Z,64.30
2023-03-26T18:02:02.803Z,64.60
2023-03-26T18:04:32.908Z,64.70
2023-03-26T18:07:03.985Z,65.60
2023-03-26T18:09:46.002Z,65.80
2023-03-26T18:12:18.816Z,66.10
2023-03-26T18:14:57.594Z,66.60
2023-03-26T18:17:26.256Z,66.80
2023-03-26T18:19:55.871Z,67.20
2023-03-26T18:22:26.376Z,67.70
2023-03-26T18:24:59.533Z,68.30
2023-03-26T18:27:29.601Z,68.70
2023-03-26T18:30:01.830Z,69.00
2023-03-26T18:32:36.569Z,69.20
2023-03-26T18:35:15.385Z,69.40
2023-03-26T18:37:45.898Z,69.30
2023-03-26T18:40:17.381Z,69.60
2023-03-26T18:42:47.880Z,69.80
2023-03-26T18:45:17.914Z,69.90
2023-03-26T18:47:48.202Z,70.10
2023-03-26T18:50:18.222Z,70.40
2023-03-26T18:52:46.784Z,70.80
2023-03-26T18:55:15.839Z,70.90
2023-03-26T18:57:44.416Z,71.20
2023-03-26T19:00:16.163Z,71.20
2023-03-26T19:02:46.707Z,71.40
2023-03-26T19:05:16.762Z,71.40
2023-03-26T19:07:46.943Z,71.80
2023-03-26T19:10:18.814Z,72.00
2023-03-26T19:12:48.854Z,71.80
2023-03-26T19:15:17.584Z,71.90
2023-03-26T19:17:51.245Z,72.10
2023-03-26T19:20:24.235Z,72.80
2023-03-26T19:22:53.353Z,73.20
2023-03-26T19:25:23.878Z,73.60
2023-03-26T19:27:55.070Z,73.60
2023-03-26T19:30:34.204Z,73.60
2023-03-26T19:33:12.169Z,73.60
2023-03-26T19:35:38.781Z,73.70
2023-03-26T19:38:14.692Z,73.80
2023-03-26T19:40:44.813Z,73.90
2023-03-26T19:43:15.023Z,73.70
2023-03-26T19:46:00.627Z,73.40
2023-03-26T19:48:16.000Z,73.50
2023-03-26T19:50:46.312Z,73.30
2023-03-26T19:53:19.253Z,73.00
2023-03-26T19:55:58.607Z,73.00
2023-03-26T19:58:27.839Z,73.50
2023-03-26T20:00:56.944Z,73.70
2023-03-26T20:03:28.458Z,73.60
2023-03-26T20:05:56.992Z,73.80
2023-03-26T20:08:28.974Z,73.90
2023-03-26T20:10:58.208Z,73.80
2023-03-26T20:13:27.366Z,73.90
2023-03-26T20:16:05.397Z,74.10
2023-03-26T20:18:27.773Z,74.30
2023-03-26T20:20:58.142Z,74.10
2023-03-26T20:23:28.787Z,73.80
2023-03-26T20:25:57.787Z,74.00
2023-03-26T20:28:30.337Z,73.90
2023-03-26T20:30:59.429Z,73.70
2023-03-26T20:33:28.311Z,73.80
2023-03-26T20:35:58.358Z,74.10
2023-03-26T20:38:39.160Z,74.00
2023-03-26T20:40:57.685Z,74.00
2023-03-26T20:43:28.148Z,74.30
2023-03-26T20:45:59.177Z,74.60
2023-03-26T20:48:27.774Z,74.80
2023-03-26T20:50:58.034Z,74.80
2023-03-26T20:53:28.219Z,74.60
2023-03-26T20:55:57.529Z,74.60
2023-03-26T20:58:31.110Z,74.60
2023-03-26T21:00:59.045Z,74.80
2023-03-26T21:03:27.637Z,74.40
2023-03-26T21:05:59.176Z,74.50
2023-03-26T21:08:29.537Z,74.40
2023-03-26T21:11:01.393Z,73.80
2023-03-26T21:13:31.456Z,73.90
2023-03-26T21:16:00.983Z,73.40
2023-03-26T21:18:29.791Z,73.50
2023-03-26T21:21:18.215Z,73.30
2023-03-26T21:23:39.142Z,72.90
2023-03-26T21:26:09.355Z,73.20
2023-03-26T21:28:42.265Z,73.40
2023-03-26T21:31:12.316Z,73.40
2023-03-26T21:33:40.942Z,73.50
2023-03-26T21:36:11.844Z,74.00
2023-03-26T21:38:45.331Z,74.40
2023-03-26T21:41:35.256Z,74.80
2023-03-26T21:44:05.224Z,74.90
2023-03-26T21:46:34.081Z,75.30
2023-03-26T21:49:02.914Z,75.70
2023-03-26T21:51:34.025Z,75.70
2023-03-26T21:54:06.114Z,76.00
2023-03-26T21:56:36.220Z,76.00
2023-03-26T21:59:18.594Z,76.30
2023-03-26T22:01:57.625Z,76.20
2023-03-26T22:04:27.711Z,76.50
2023-03-26T22:06:59.204Z,76.50
2023-03-26T22:12:00.162Z,76.20
2023-03-26T22:14:29.396Z,76.40
2023-03-26T22:16:57.962Z,76.10
2023-03-26T22:19:28.577Z,75.80
2023-03-26T22:21:58.138Z,75.70
2023-03-26T22:24:26.875Z,75.60
2023-03-26T22:26:55.860Z,75.20
2023-03-26T22:29:25.739Z,75.50
2023-03-26T22:31:55.863Z,75.50
2023-03-26T22:34:25.850Z,75.40
2023-03-26T22:36:54.305Z,75.50
2023-03-26T22:39:22.818Z,75.00
2023-03-26T22:41:52.918Z,74.40
2023-03-26T22:44:21.719Z,73.90
2023-03-26T22:46:51.109Z,73.30
2023-03-26T22:49:19.764Z,73.20
2023-03-26T22:51:49.900Z,73.10
2023-03-26T22:54:18.416Z,72.70
2023-03-26T22:56:48.075Z,72.90
2023-03-26T22:59:16.622Z,72.70
2023-03-26T23:01:45.643Z,72.70
2023-03-26T23:04:31.386Z,72.80
2023-03-26T23:06:45.261Z,72.60
2023-03-26T23:09:14.673Z,72.70
2023-03-26T23:11:44.477Z,72.80
2023-03-26T23:14:13.040Z,72.90
2023-03-26T23:16:42.156Z,72.70
2023-03-26T23:19:10.650Z,72.80
2023-03-26T23:21:40.252Z,73.00
2023-03-26T23:24:08.888Z,73.10
2023-03-26T23:26:49.740Z,73.20
2023-03-26T23:29:09.353Z,73.40
2023-03-26T23:31:39.354Z,73.30
2023-03-26T23:34:09.089Z,73.10
2023-03-26T23:36:37.604Z,73.40
2023-03-26T23:39:06.771Z,73.10
2023-03-26T23:41:36.956Z,73.20
2023-03-26T23:44:05.507Z,73.10
2023-03-26T23:46:35.232Z,73.10
2023-03-26T23:49:03.802Z,73.40
2023-03-26T23:51:35.900Z,73.60
2023-03-26T23:54:05.462Z,73.40
2023-03-26T23:56:34.091Z,73.50
2023-03-26T23:59:03.378Z,73.50
